Time;durP1;ratioP1;P1;durP2;ratioP2;P2;SDS_P1;SDS_P2;PMS_P1;PMS_P2;Temp;Humidity;BMP_temperature;BMP_pressure;BME280_temperature;BME280_humidity;BME280_pressure;Samples;Min_cycle;Max_cycle;Signal;HPM_P1;HPM_P2
2024/02/29 00:02:16;;;;;;;;;14.50;11.75;;;;;10.72;73.40;101207.63;5071568;27;71737;-60
2024/02/29 00:04:42;;;;;;;;;13.25;11.50;;;;;10.74;73.11;101210.22;5066175;27;75704;-60
2024/02/29 00:07:08;;;;;;;;;11.25;9.50;;;;;10.73;73.18;101196.25;5067872;27;71515;-60
2024/02/29 00:09:35;;;;;;;;;14.75;8.25;;;;;10.73;73.54;101190.13;5077257;27;45379;-60
2024/02/29 00:12:01;;;;;;;;;16.75;12.00;;;;;10.74;73.35;101194.50;5067884;27;45453;-60
2024/02/29 00:14:27;;;;;;;;;11.00;9.75;;;;;10.74;73.18;101197.97;5069464;27;45461;-60
2024/02/29 00:16:53;;;;;;;;;13.25;11.25;;;;;10.73;73.57;101184.91;5070547;28;45343;-60
2024/02/29 00:19:20;;;;;;;;;12.50;8.50;;;;;10.74;73.65;101184.03;5063902;27;59245;-59
2024/02/29 00:21:46;;;;;;;;;13.75;9.00;;;;;10.75;73.25;101183.16;5063927;28;45257;-61
2024/02/29 00:24:11;;;;;;;;;13.25;9.75;;;;;10.76;73.27;101179.63;5076349;27;46034;-59
2024/02/29 00:26:36;;;;;;;;;15.50;8.50;;;;;10.76;73.70;101177.84;5048272;28;73154;-61
2024/02/29 00:29:02;;;;;;;;;13.25;9.25;;;;;10.77;73.46;101169.13;5060336;27;68344;-60
2024/02/29 00:31:27;;;;;;;;;11.50;7.25;;;;;10.78;73.43;101163.00;5069590;28;45521;-60
2024/02/29 00:33:53;;;;;;;;;11.75;7.25;;;;;10.80;73.34;101155.09;5070732;27;75403;-60
2024/02/29 00:36:19;;;;;;;;;10.50;8.00;;;;;10.82;73.68;101150.72;5072901;27;45447;-60
2024/02/29 00:38:44;;;;;;;;;10.50;8.25;;;;;10.80;73.86;101148.13;5068197;28;45348;-61
2024/02/29 00:41:09;;;;;;;;;11.50;7.25;;;;;10.79;73.49;101140.28;5069155;27;45137;-59
2024/02/29 00:43:35;;;;;;;;;14.75;9.00;;;;;10.77;74.02;101137.69;5063066;27;72049;-59
2024/02/29 00:46:00;;;;;;;;;12.50;8.50;;;;;10.79;73.97;101137.69;5060002;28;71537;-60
2024/02/29 00:48:26;;;;;;;;;8.75;7.25;;;;;10.76;74.10;101124.63;5074565;27;69310;-59
2024/02/29 00:50:51;;;;;;;;;7.00;5.50;;;;;10.80;74.50;101128.91;5079725;27;45303;-60
2024/02/29 00:53:16;;;;;;;;;11.00;8.00;;;;;10.80;74.50;101123.66;5061904;27;77107;-59
2024/02/29 00:55:43;;;;;;;;;9.75;7.50;;;;;10.81;74.34;101123.63;5065694;27;45441;-58
2024/02/29 00:58:08;;;;;;;;;10.50;8.00;;;;;10.82;74.21;101119.28;5068548;28;45532;-58
2024/02/29 01:00:33;;;;;;;;;9.00;8.00;;;;;10.84;74.43;101117.50;5071578;27;69651;-59
2024/02/29 01:02:58;;;;;;;;;11.75;8.25;;;;;10.86;74.31;101112.22;5066192;27;75633;-60
2024/02/29 01:05:24;;;;;;;;;10.25;7.50;;;;;10.86;74.41;101107.00;5067936;28;70354;-60
2024/02/29 01:07:49;;;;;;;;;12.50;8.00;;;;;10.89;74.53;101110.41;5063061;27;68308;-59
2024/02/29 01:10:14;;;;;;;;;10.50;7.50;;;;;10.89;74.59;101101.66;5072318;28;71870;-59
2024/02/29 01:12:41;;;;;;;;;10.00;7.00;;;;;10.90;74.20;101106.03;5067994;27;74586;-60
2024/02/29 01:15:08;;;;;;;;;12.00;8.00;;;;;10.90;74.55;101093.78;5061635;28;45525;-59
2024/02/29 01:17:34;;;;;;;;;5.00;5.00;;;;;10.90;74.09;101093.78;5070916;27;45387;-59
2024/02/29 01:19:59;;;;;;;;;7.50;5.50;;;;;10.91;74.71;101094.66;5067702;27;45428;-59
2024/02/29 01:22:25;;;;;;;;;6.75;6.75;;;;;10.91;74.60;101087.66;5068485;27;46313;-59
2024/02/29 01:24:51;;;;;;;;;9.25;8.00;;;;;10.93;74.70;101085.00;5071673;28;45513;-59
2024/02/29 01:27:16;;;;;;;;;9.50;6.00;;;;;10.95;74.52;101070.97;5074222;27;45464;-59
2024/02/29 01:29:42;;;;;;;;;9.25;6.50;;;;;10.98;74.88;101070.06;5072362;27;45540;-60
2024/02/29 01:32:07;;;;;;;;;5.25;5.00;;;;;10.99;74.68;101063.91;5071753;28;46752;-59
2024/02/29 01:34:34;;;;;;;;;7.25;6.00;;;;;10.98;74.82;101056.97;5071858;28;52322;-60
2024/02/29 01:36:59;;;;;;;;;8.25;6.25;;;;;10.99;75.04;101053.44;5067335;28;45485;-59
2024/02/29 01:39:24;;;;;;;;;8.50;6.00;;;;;11.00;75.08;101055.16;5060139;28;71830;-59
2024/02/29 01:41:50;;;;;;;;;10.00;6.75;;;;;11.00;75.08;101048.16;5067155;28;62700;-59
2024/02/29 01:44:15;;;;;;;;;9.00;7.00;;;;;11.02;75.27;101043.75;5068003;27;45537;-59
2024/02/29 01:46:41;;;;;;;;;9.00;5.75;;;;;11.04;74.98;101042.84;5062757;28;45445;-58
2024/02/29 01:49:06;;;;;;;;;9.75;6.25;;;;;11.03;75.32;101028.91;5063389;27;71835;-59
2024/02/29 01:51:32;;;;;;;;;8.75;7.00;;;;;11.07;75.39;101024.47;5072052;27;75583;-59
2024/02/29 01:53:57;;;;;;;;;6.25;6.00;;;;;11.07;75.16;101030.56;5074861;28;70928;-59
2024/02/29 01:56:23;;;;;;;;;11.00;5.75;;;;;11.08;75.12;101024.41;5064500;28;65327;-59
2024/02/29 01:58:49;;;;;;;;;10.50;7.75;;;;;11.07;75.32;101019.22;5064906;28;45775;-59
2024/02/29 02:01:14;;;;;;;;;9.00;7.00;;;;;11.06;75.97;101020.09;5067802;27;46169;-59
2024/02/29 02:03:39;;;;;;;;;5.00;4.75;;;;;11.05;76.40;101013.13;5065055;27;73077;-59
2024/02/29 02:06:05;;;;;;;;;7.25;4.00;;;;;11.04;76.19;101007.03;5074884;27;45572;-60
2024/02/29 02:08:34;;;;;;;;;8.50;7.00;;;;;11.05;76.33;101003.53;5074135;27;45277;-58
2024/02/29 02:10:59;;;;;;;;;9.50;5.25;;;;;11.06;76.62;101005.25;5059476;27;72825;-59
2024/02/29 02:13:24;;;;;;;;;9.00;5.50;;;;;11.05;76.42;100992.19;5073354;27;45460;-59
2024/02/29 02:15:50;;;;;;;;;9.50;8.00;;;;;11.02;77.20;100993.13;5071406;27;70289;-60
2024/02/29 02:18:15;;;;;;;;;7.75;6.75;;;;;11.02;77.10;100988.75;5067260;28;73119;-60
2024/02/29 02:20:40;;;;;;;;;7.50;6.00;;;;;11.03;77.31;100981.78;5064629;27;76333;-61
2024/02/29 02:23:06;;;;;;;;;6.50;6.00;;;;;11.02;77.32;100977.41;5063840;27;49835;-59
2024/02/29 02:25:31;;;;;;;;;8.75;6.00;;;;;11.03;77.50;100976.53;5067576;27;69248;-59
2024/02/29 02:27:57;;;;;;;;;7.25;6.50;;;;;11.01;77.51;100971.31;5072985;28;45346;-59
2024/02/29 02:30:22;;;;;;;;;6.50;5.00;;;;;11.04;77.76;100969.53;5067153;27;46702;-59
2024/02/29 02:32:47;;;;;;;;;6.75;6.00;;;;;11.06;77.92;100959.88;5063425;28;72028;-59
2024/02/29 02:35:12;;;;;;;;;8.25;6.00;;;;;11.08;77.94;100963.31;5071167;27;59555;-59
2024/02/29 02:37:39;;;;;;;;;6.00;6.00;;;;;11.09;77.75;100955.41;5073649;27;45537;-59
2024/02/29 02:40:05;;;;;;;;;7.50;6.00;;;;;11.09;77.91;100951.94;5068018;27;45309;-59
2024/02/29 02:42:30;;;;;;;;;6.25;5.50;;;;;11.11;78.12;100950.13;5065861;27;45488;-60
2024/02/29 02:44:56;;;;;;;;;6.00;5.00;;;;;11.12;77.93;100934.38;5063805;27;45518;-60
2024/02/29 02:47:21;;;;;;;;;6.75;6.50;;;;;11.14;78.86;100926.50;5070295;27;46463;-60
2024/02/29 02:49:47;;;;;;;;;7.00;5.00;;;;;11.14;78.79;100924.72;5075958;27;73597;-60
2024/02/29 02:52:12;;;;;;;;;7.50;6.00;;;;;11.14;78.59;100919.47;5070188;28;53390;-60
2024/02/29 02:54:37;;;;;;;;;8.00;6.50;;;;;11.14;78.84;100916.88;5075331;27;55302;-60
2024/02/29 02:57:03;;;;;;;;;8.00;6.75;;;;;11.12;79.21;100913.44;5070040;27;73808;-60
2024/02/29 02:59:28;;;;;;;;;8.50;6.00;;;;;11.12;79.24;100905.56;5068281;27;46162;-60
2024/02/29 03:01:53;;;;;;;;;11.75;7.00;;;;;11.11;79.41;100901.22;5069656;27;72393;-60
2024/02/29 03:04:19;;;;;;;;;10.50;7.00;;;;;11.12;79.23;100910.81;5074651;28;69165;-60
2024/02/29 03:06:44;;;;;;;;;7.25;6.75;;;;;11.12;79.48;100902.06;5072924;27;60009;-60
2024/02/29 03:09:11;;;;;;;;;8.00;6.50;;;;;11.12;79.52;100896.84;5073436;27;72479;-61
2024/02/29 03:11:37;;;;;;;;;10.50;5.00;;;;;11.12;79.92;100891.59;5073541;27;47657;-59
2024/02/29 03:14:02;;;;;;;;;6.75;6.75;;;;;11.12;80.18;100888.97;5064924;27;47279;-60
2024/02/29 03:16:27;;;;;;;;;6.25;6.25;;;;;11.11;79.90;100874.19;5074733;28;45303;-60
2024/02/29 03:18:53;;;;;;;;;6.00;5.25;;;;;11.08;80.43;100869.03;5075213;27;46021;-58
2024/02/29 03:21:18;;;;;;;;;7.00;6.00;;;;;11.07;80.11;100865.56;5068710;27;45153;-59
2024/02/29 03:23:44;;;;;;;;;6.00;6.00;;;;;11.08;80.81;100866.41;5075424;27;45520;-59
2024/02/29 03:26:09;;;;;;;;;5.00;5.00;;;;;11.09;80.39;100861.13;5064499;28;72125;-61
2024/02/29 03:28:35;;;;;;;;;5.00;5.00;;;;;11.06;80.49;100847.25;5074450;28;46909;-60
2024/02/29 03:31:00;;;;;;;;;5.75;5.75;;;;;11.09;80.54;100862.91;5066593;27;46063;-60
2024/02/29 03:33:26;;;;;;;;;7.00;7.00;;;;;11.08;81.01;100861.16;5067886;27;45540;-60
2024/02/29 03:35:51;;;;;;;;;9.75;6.00;;;;;11.06;80.99;100860.34;5066372;27;45422;-60
2024/02/29 03:38:17;;;;;;;;;10.00;7.25;;;;;11.06;81.20;100857.72;5060686;27;72773;-59
2024/02/29 03:40:43;;;;;;;;;10.00;7.00;;;;;11.03;81.03;100842.97;5072871;27;45468;-57
2024/02/29 03:43:08;;;;;;;;;8.75;6.25;;;;;11.02;81.61;100847.31;5066342;27;45320;-61
2024/02/29 03:45:34;;;;;;;;;7.50;6.25;;;;;11.02;81.18;100849.09;5064480;27;45695;-58
2024/02/29 03:47:59;;;;;;;;;9.75;7.00;;;;;11.02;81.77;100843.84;5071656;27;46137;-58
2024/02/29 03:50:26;;;;;;;;;6.25;6.00;;;;;11.02;81.52;100841.25;5073968;27;73050;-59
2024/02/29 03:52:51;;;;;;;;;8.00;6.00;;;;;11.00;81.64;100832.56;5068215;28;45373;-59
2024/02/29 03:55:16;;;;;;;;;7.00;6.25;;;;;11.01;82.14;100835.16;5079916;27;55926;-59
2024/02/29 03:57:42;;;;;;;;;8.00;6.00;;;;;10.99;82.24;100834.31;5065923;27;60692;-60
2024/02/29 04:00:10;;;;;;;;;10.75;6.50;;;;;11.00;82.22;100832.56;5066309;28;45342;-60
2024/02/29 04:02:39;;;;;;;;;9.25;7.50;;;;;11.01;82.32;100829.03;5076668;27;45809;-61
2024/02/29 04:05:08;;;;;;;;;8.00;7.00;;;;;11.00;82.31;100817.72;5063996;28;45344;-60
2024/02/29 04:07:42;;;;;;;;;9.75;6.50;;;;;11.00;82.36;100822.94;5065491;27;50133;-60
2024/02/29 04:10:08;;;;;;;;;7.00;6.00;;;;;11.00;82.58;100822.09;5070875;27;45756;-60
2024/02/29 04:12:34;;;;;;;;;8.00;7.00;;;;;10.98;82.83;100823.91;5074338;27;45433;-59
2024/02/29 04:15:01;;;;;;;;;10.75;7.75;;;;;10.97;82.53;100820.41;5077341;27;45258;-60
2024/02/29 04:17:27;;;;;;;;;8.50;7.25;;;;;10.96;82.66;100813.47;5062490;28;47212;-60
2024/02/29 04:19:53;;;;;;;;;7.75;7.75;;;;;10.95;82.98;100814.34;5070058;27;45400;-59
2024/02/29 04:22:18;;;;;;;;;12.50;11.00;;;;;10.96;82.69;100804.72;5066075;27;45662;-59
2024/02/29 04:24:43;;;;;;;;;9.00;7.00;;;;;10.94;83.05;100810.03;5067210;28;73307;-59
2024/02/29 04:27:08;;;;;;;;;12.50;8.75;;;;;10.95;83.40;100806.50;5065615;27;72645;-59
2024/02/29 04:29:34;;;;;;;;;11.25;8.00;;;;;10.95;83.29;100803.88;5088269;27;74096;-59
2024/02/29 04:31:59;;;;;;;;;8.25;6.75;;;;;10.96;83.38;100802.13;5074298;27;57817;-59
2024/02/29 04:34:25;;;;;;;;;6.50;6.50;;;;;10.98;83.58;100798.56;5068686;27;73115;-59
2024/02/29 04:36:50;;;;;;;;;8.75;7.75;;;;;10.98;83.29;100795.94;5064040;27;45410;-59
2024/02/29 04:39:16;;;;;;;;;6.25;6.00;;;;;10.99;83.62;100797.66;5068776;27;71174;-59
2024/02/29 04:41:41;;;;;;;;;9.00;7.00;;;;;10.98;83.54;100787.25;5066469;28;54922;-58
2024/02/29 04:44:07;;;;;;;;;12.25;8.50;;;;;10.97;83.94;100785.50;5060594;28;72036;-60
2024/02/29 04:46:32;;;;;;;;;10.00;7.00;;;;;10.97;83.87;100783.75;5069391;27;46238;-59
2024/02/29 04:48:58;;;;;;;;;7.00;7.00;;;;;10.99;83.81;100781.94;5060650;28;45378;-59
2024/02/29 04:51:23;;;;;;;;;9.00;6.75;;;;;11.00;84.03;100774.97;5072045;27;62653;-60
2024/02/29 04:53:48;;;;;;;;;5.00;4.25;;;;;10.94;84.33;100765.53;5077768;27;73167;-60
2024/02/29 04:56:14;;;;;;;;;4.00;4.00;;;;;11.07;84.39;100773.03;5071024;27;75676;-60
2024/02/29 04:58:39;;;;;;;;;7.50;6.00;;;;;11.13;84.39;100765.84;5064441;28;71876;-58
2024/02/29 05:01:04;;;;;;;;;9.50;7.00;;;;;11.22;84.01;100762.09;5070286;27;45434;-59
2024/02/29 05:03:30;;;;;;;;;6.00;6.00;;;;;11.27;84.09;100757.59;5068771;27;69886;-60
2024/02/29 05:05:55;;;;;;;;;5.50;5.50;;;;;11.34;84.25;100758.28;5064593;28;67099;-60
2024/02/29 05:08:20;;;;;;;;;7.00;6.00;;;;;11.40;83.60;100758.06;5063178;28;52209;-60
2024/02/29 05:10:46;;;;;;;;;13.50;8.00;;;;;11.43;83.45;100755.38;5064056;28;58560;-60
2024/02/29 05:13:11;;;;;;;;;9.75;8.00;;;;;11.44;83.56;100748.34;5063931;27;68758;-60
2024/02/29 05:15:38;;;;;;;;;7.25;6.00;;;;;11.48;83.68;100744.75;5062026;27;75306;-60
2024/02/29 05:18:06;;;;;;;;;9.00;8.00;;;;;11.51;83.43;100752.50;5068258;28;45396;-59
2024/02/29 05:20:31;;;;;;;;;8.00;7.25;;;;;11.55;83.20;100743.66;5062759;28;45284;-61
2024/02/29 05:22:56;;;;;;;;;11.75;7.50;;;;;11.55;83.28;100741.88;5067523;27;45202;-60
2024/02/29 05:25:22;;;;;;;;;11.00;8.50;;;;;11.57;83.56;100737.44;5074103;28;46466;-59
2024/02/29 05:27:47;;;;;;;;;8.75;8.75;;;;;11.61;83.71;100739.97;5061173;28;45293;-60
2024/02/29 05:30:14;;;;;;;;;9.50;8.00;;;;;11.62;83.65;100739.09;5071131;27;54575;-59
2024/02/29 05:32:40;;;;;;;;;11.75;8.25;;;;;11.63;83.59;100740.78;5075403;27;45531;-59
2024/02/29 05:35:05;;;;;;;;;11.25;8.50;;;;;11.66;83.47;100730.22;5075014;27;45527;-60
2024/02/29 05:37:32;;;;;;;;;11.25;7.75;;;;;11.64;83.47;100726.78;5060701;27;45746;-60
2024/02/29 05:40:00;;;;;;;;;8.25;8.00;;;;;11.65;84.12;100731.09;5075598;27;45816;-60
2024/02/29 05:42:26;;;;;;;;;8.00;8.00;;;;;11.63;83.24;100735.53;5071710;27;45469;-60
2024/02/29 05:44:54;;;;;;;;;10.25;7.25;;;;;11.58;82.80;100736.56;5082826;27;46327;-60
2024/02/29 05:47:20;;;;;;;;;14.75;9.00;;;;;11.52;82.78;100725.41;5060610;28;45501;-60
2024/02/29 05:49:46;;;;;;;;;9.25;7.00;;;;;11.50;83.21;100729.84;5075941;28;45283;-60
2024/02/29 05:52:11;;;;;;;;;11.00;9.75;;;;;11.48;82.74;100723.78;5072752;27;46553;-60
2024/02/29 05:54:36;;;;;;;;;12.00;9.50;;;;;11.46;83.23;100721.22;5086708;27;45379;-59
2024/02/29 05:57:02;;;;;;;;;9.25;9.00;;;;;11.44;82.70;100717.78;5091117;27;72800;-60
2024/02/29 05:59:27;;;;;;;;;12.00;8.75;;;;;11.40;83.24;100710.91;5065407;27;45812;-59
2024/02/29 06:01:53;;;;;;;;;15.75;8.00;;;;;11.35;83.03;100712.81;5067750;27;45430;-60
2024/02/29 06:04:18;;;;;;;;;15.50;11.00;;;;;11.30;83.03;100715.59;5071972;28;47110;-60
2024/02/29 06:06:44;;;;;;;;;10.75;10.00;;;;;11.26;83.42;100694.75;5070643;28;72017;-59
2024/02/29 06:09:12;;;;;;;;;8.75;8.75;;;;;11.25;83.17;100700.91;5069794;27;62054;-59
2024/02/29 06:11:38;;;;;;;;;7.25;7.25;;;;;11.22;83.34;100694.00;5071392;27;45663;-59
2024/02/29 06:14:04;;;;;;;;;10.00;7.25;;;;;11.16;83.23;100688.94;5064874;27;46123;-58
2024/02/29 06:16:30;;;;;;;;;14.50;12.00;;;;;11.12;83.14;100682.94;5059495;28;45224;-58
2024/02/29 06:18:56;;;;;;;;;12.00;12.00;;;;;11.12;83.02;100692.53;5066840;27;70351;-59
2024/02/29 06:21:21;;;;;;;;;13.75;9.25;;;;;11.09;83.56;100685.66;5067290;27;45896;-60
2024/02/29 06:23:47;;;;;;;;;12.50;11.25;;;;;11.07;83.47;100686.63;5065727;27;45383;-59
2024/02/29 06:26:13;;;;;;;;;12.25;9.50;;;;;11.07;83.61;100681.38;5063803;27;45363;-60
2024/02/29 06:28:38;;;;;;;;;11.00;9.00;;;;;11.03;84.18;100680.63;5063578;28;45437;-60
2024/02/29 06:31:04;;;;;;;;;13.25;12.00;;;;;11.01;83.57;100692.88;5063613;27;72855;-60
2024/02/29 06:33:29;;;;;;;;;11.00;8.75;;;;;10.98;83.83;100680.75;5070821;27;51426;-59
2024/02/29 06:35:54;;;;;;;;;15.00;11.75;;;;;10.96;84.16;100684.28;5065736;27;72061;-59
2024/02/29 06:38:20;;;;;;;;;13.25;10.50;;;;;10.91;84.16;100671.34;5070001;28;69481;-60
2024/02/29 06:40:46;;;;;;;;;16.25;12.75;;;;;10.87;84.12;100674.97;5073729;27;45579;-60
2024/02/29 06:43:11;;;;;;;;;13.50;9.00;;;;;10.83;84.49;100666.31;5076328;27;45893;-60
2024/02/29 06:45:38;;;;;;;;;11.50;11.50;;;;;10.81;84.48;100670.75;5062085;28;45238;-59
2024/02/29 06:48:04;;;;;;;;;13.00;12.50;;;;;10.79;84.71;100667.31;5061981;28;45244;-60
2024/02/29 06:50:30;;;;;;;;;15.00;12.00;;;;;10.79;84.74;100663.84;5063988;28;45308;-59
2024/02/29 06:52:57;;;;;;;;;38.75;28.25;;;;;10.81;84.82;100662.03;5061785;27;47255;-62
2024/02/29 06:55:23;;;;;;;;;14.25;14.00;;;;;10.79;84.87;100664.69;5059916;28;45438;-60
2024/02/29 06:57:48;;;;;;;;;14.75;11.75;;;;;10.79;84.81;100654.22;5066045;28;45514;-60
2024/02/29 07:00:14;;;;;;;;;9.00;7.25;;;;;10.78;85.12;100654.28;5072230;28;72706;-59
2024/02/29 07:02:39;;;;;;;;;13.00;9.25;;;;;10.77;84.95;100657.81;5068356;28;46051;-59
2024/02/29 07:05:05;;;;;;;;;7.75;7.00;;;;;10.76;85.23;100656.09;5071280;27;65781;-58
2024/02/29 07:07:30;;;;;;;;;9.00;9.00;;;;;10.75;85.17;100657.00;5066433;27;45330;-58
2024/02/29 07:09:56;;;;;;;;;7.75;7.75;;;;;10.73;85.14;100645.69;5054061;28;73125;-58
2024/02/29 07:12:22;;;;;;;;;14.00;11.00;;;;;10.73;85.42;100650.94;5070805;27;45973;-58
2024/02/29 07:14:47;;;;;;;;;13.75;11.75;;;;;10.74;85.26;100650.03;5062849;27;45578;-57
2024/02/29 07:17:12;;;;;;;;;11.75;9.25;;;;;10.74;85.08;100650.88;5066102;28;45351;-58
2024/02/29 07:19:39;;;;;;;;;15.25;10.25;;;;;10.73;85.15;100643.06;5060736;28;70805;-58
2024/02/29 07:22:04;;;;;;;;;9.25;9.25;;;;;10.71;85.28;100648.38;5069438;28;46012;-59
2024/02/29 07:24:31;;;;;;;;;10.50;10.50;;;;;10.70;85.90;100648.41;5072728;28;45434;-59
2024/02/29 07:26:56;;;;;;;;;10.25;9.50;;;;;10.70;85.41;100641.41;5061090;28;45210;-60
2024/02/29 07:29:22;;;;;;;;;8.75;8.00;;;;;10.71;85.39;100637.03;5067892;27;45431;-59
2024/02/29 07:31:49;;;;;;;;;8.00;8.00;;;;;10.68;85.66;100632.75;5069807;27;45423;-58
2024/02/29 07:34:16;;;;;;;;;11.25;8.25;;;;;10.70;85.84;100633.56;5076116;28;49558;-59
2024/02/29 07:36:41;;;;;;;;;10.00;8.50;;;;;10.71;85.33;100634.41;5072222;28;45425;-59
2024/02/29 07:39:07;;;;;;;;;10.25;8.00;;;;;10.73;85.40;100627.38;5067471;28;45465;-60
2024/02/29 07:41:32;;;;;;;;;11.75;8.00;;;;;10.74;85.12;100629.94;5064421;28;46996;-57
2024/02/29 07:43:57;;;;;;;;;8.00;8.00;;;;;10.75;84.98;100628.22;5063327;28;67371;-59
2024/02/29 07:46:23;;;;;;;;;12.00;11.00;;;;;10.75;84.93;100626.44;5062462;27;69209;-58
2024/02/29 07:48:48;;;;;;;;;9.25;8.00;;;;;10.75;84.89;100623.81;5070039;27;45225;-60
2024/02/29 07:51:17;;;;;;;;;10.25;9.00;;;;;10.71;84.74;100619.59;5075379;28;46268;-59
2024/02/29 07:53:43;;;;;;;;;10.00;9.00;;;;;10.70;84.38;100617.88;5068592;28;46529;-59
2024/02/29 07:56:08;;;;;;;;;7.25;7.25;;;;;10.70;84.36;100617.00;5063920;27;69178;-59
2024/02/29 07:58:34;;;;;;;;;12.50;8.00;;;;;10.66;84.49;100613.63;5072302;28;45666;-59
2024/02/29 08:00:59;;;;;;;;;9.25;7.00;;;;;10.63;84.47;100611.94;5070969;27;47150;-59
2024/02/29 08:03:25;;;;;;;;;12.50;8.00;;;;;10.63;84.49;100606.72;5064269;27;51917;-59
2024/02/29 08:05:50;;;;;;;;;9.50;7.50;;;;;10.61;84.24;100607.66;5075237;27;67210;-58
2024/02/29 08:08:15;;;;;;;;;7.00;7.00;;;;;10.55;84.52;100593.00;5069023;27;59567;-58
2024/02/29 08:10:41;;;;;;;;;12.00;8.00;;;;;10.52;84.39;100590.47;5068500;27;75372;-61
2024/02/29 08:13:06;;;;;;;;;7.00;6.25;;;;;10.52;84.57;100587.84;5071046;28;73385;-59
2024/02/29 08:15:31;;;;;;;;;10.50;7.25;;;;;10.52;84.84;100587.00;5076775;27;56359;-59
2024/02/29 08:17:58;;;;;;;;;8.50;6.25;;;;;10.55;84.80;100585.16;5065229;28;45452;-59
2024/02/29 08:20:25;;;;;;;;;11.25;8.00;;;;;10.55;84.48;100574.69;5070134;28;46316;-58
2024/02/29 08:22:53;;;;;;;;;8.50;8.25;;;;;10.58;84.70;100579.81;5060663;28;45257;-58
2024/02/29 08:25:21;;;;;;;;;10.50;8.25;;;;;10.58;84.38;100568.50;5061033;28;45350;-59
2024/02/29 08:27:46;;;;;;;;;7.25;7.25;;;;;10.58;84.66;100571.13;5071863;28;45550;-59
2024/02/29 08:30:12;;;;;;;;;6.25;6.25;;;;;10.57;84.28;100567.66;5061630;28;74075;-59
2024/02/29 08:32:38;;;;;;;;;11.25;7.00;;;;;10.57;84.56;100570.28;5073996;28;45242;-59
2024/02/29 08:35:03;;;;;;;;;7.25;7.25;;;;;10.56;84.62;100565.06;5061452;28;45373;-60
2024/02/29 08:37:29;;;;;;;;;10.25;7.25;;;;;10.54;84.67;100565.13;5063917;28;45569;-60
2024/02/29 08:39:54;;;;;;;;;11.00;7.25;;;;;10.52;84.46;100560.84;5063887;28;74534;-60
2024/02/29 08:42:20;;;;;;;;;12.75;8.75;;;;;10.52;84.62;100555.63;5067437;28;45440;-60
2024/02/29 08:44:47;;;;;;;;;14.25;8.00;;;;;10.52;84.39;100563.47;5064583;28;45238;-58
2024/02/29 08:47:12;;;;;;;;;11.75;8.75;;;;;10.53;84.44;100558.16;5065367;28;45313;-56
2024/02/29 08:49:38;;;;;;;;;11.00;8.00;;;;;10.53;84.74;100558.16;5074842;28;66332;-59
2024/02/29 08:52:04;;;;;;;;;9.75;7.00;;;;;10.51;84.73;100554.72;5073526;27;45639;-59
2024/02/29 08:54:29;;;;;;;;;7.00;6.25;;;;;10.52;84.86;100551.22;5077795;27;45597;-59
2024/02/29 08:56:56;;;;;;;;;7.75;7.00;;;;;10.55;84.84;100543.28;5067702;27;45547;-60
2024/02/29 08:59:21;;;;;;;;;11.50;8.75;;;;;10.56;84.80;100539.75;5066801;28;45426;-60
2024/02/29 09:01:46;;;;;;;;;8.50;6.75;;;;;10.58;84.49;100534.47;5069439;27;56538;-60
2024/02/29 09:04:11;;;;;;;;;10.25;8.50;;;;;10.57;84.76;100533.63;5071577;27;66028;-59
2024/02/29 09:06:37;;;;;;;;;6.50;6.00;;;;;10.59;84.97;100528.38;5068990;27;73031;-59
2024/02/29 09:09:02;;;;;;;;;11.00;8.00;;;;;10.60;84.49;100536.13;5077372;27;69101;-59
2024/02/29 09:11:29;;;;;;;;;9.25;8.00;;;;;10.61;84.55;100526.53;5073002;27;45706;-59
2024/02/29 09:13:56;;;;;;;;;12.75;8.00;;;;;10.64;85.08;100523.81;5072380;27;45315;-60
2024/02/29 09:16:22;;;;;;;;;7.50;6.00;;;;;10.66;84.58;100523.78;5076175;27;45389;-59
2024/02/29 09:18:47;;;;;;;;;12.00;9.50;;;;;10.69;84.78;100524.53;5074852;28;47608;-59
2024/02/29 09:21:13;;;;;;;;;8.75;8.00;;;;;10.71;84.59;100512.28;5076390;28;45470;-61
2024/02/29 09:23:38;;;;;;;;;9.50;8.00;;;;;10.75;84.67;100521.75;5076737;27;46107;-60
2024/02/29 09:26:04;;;;;;;;;12.00;7.50;;;;;10.76;84.92;100512.13;5070460;28;48672;-60
2024/02/29 09:28:29;;;;;;;;;8.00;8.00;;;;;10.78;84.77;100511.19;5074253;28;75665;-60
2024/02/29 09:30:54;;;;;;;;;11.75;9.00;;;;;10.79;84.60;100506.78;5068023;28;73317;-59
2024/02/29 09:33:20;;;;;;;;;8.00;7.00;;;;;10.79;84.76;100501.56;5072923;27;65670;-59
2024/02/29 09:35:45;;;;;;;;;7.00;6.00;;;;;10.80;84.99;100498.91;5072045;28;45322;-61
2024/02/29 09:38:10;;;;;;;;;11.75;7.00;;;;;10.82;85.65;100501.47;5066742;28;64517;-58
2024/02/29 09:40:36;;;;;;;;;8.25;7.00;;;;;10.83;85.58;100497.94;5057826;28;45498;-60
2024/02/29 09:43:01;;;;;;;;;8.00;5.00;;;;;10.86;85.37;100490.00;5068904;28;69412;-61
2024/02/29 09:45:29;;;;;;;;;6.00;6.00;;;;;10.88;85.15;100484.72;5088429;27;45598;-62
2024/02/29 09:47:55;;;;;;;;;10.25;8.00;;;;;10.90;85.79;100485.50;5076043;27;46376;-63
2024/02/29 09:50:21;;;;;;;;;10.50;8.50;;;;;10.92;85.32;100483.69;5065437;27;45385;-63
2024/02/29 09:52:50;;;;;;;;;10.25;8.00;;;;;10.98;85.54;100483.50;5073913;27;61378;-64
2024/02/29 09:55:18;;;;;;;;;7.50;6.75;;;;;11.01;85.56;100478.16;5067531;28;67903;-66
2024/02/29 09:57:44;;;;;;;;;9.00;7.50;;;;;11.04;85.63;100474.59;5069332;28;46213;-64
2024/02/29 10:00:10;;;;;;;;;7.00;7.00;;;;;11.05;85.46;100468.44;5060197;28;45615;-63
2024/02/29 10:02:42;;;;;;;;;8.00;7.00;;;;;11.05;86.15;100471.03;5073662;28;45323;-63
2024/02/29 10:05:09;;;;;;;;;6.75;6.00;;;;;11.08;85.75;100460.47;5059891;28;45225;-62
2024/02/29 10:07:47;;;;;;;;;6.75;6.00;;;;;11.11;85.74;100455.16;5058758;28;45427;-62
2024/02/29 10:10:14;;;;;;;;;8.25;7.00;;;;;11.13;86.46;100445.47;5062182;28;45391;-62
2024/02/29 10:12:40;;;;;;;;;7.25;6.25;;;;;11.16;85.95;100446.22;5070413;27;45461;-62
2024/02/29 10:15:10;;;;;;;;;8.00;7.25;;;;;11.20;86.16;100453.06;5072796;27;45292;-62
2024/02/29 10:17:38;;;;;;;;;7.25;6.50;;;;;11.22;86.31;100447.75;5058968;28;45424;-62
2024/02/29 10:20:07;;;;;;;;;7.00;6.00;;;;;11.25;86.47;100444.19;5061859;28;45395;-63
2024/02/29 10:22:32;;;;;;;;;7.50;6.50;;;;;11.28;86.10;100433.59;5063280;28;45270;-63
2024/02/29 10:24:58;;;;;;;;;11.75;7.50;;;;;11.34;86.19;100443.88;5059231;28;65620;-62
2024/02/29 10:27:23;;;;;;;;;7.00;6.25;;;;;11.35;85.56;100433.34;5064232;28;46032;-63
2024/02/29 10:29:49;;;;;;;;;7.75;7.00;;;;;11.36;85.32;100435.03;5064862;28;45272;-60
2024/02/29 10:32:15;;;;;;;;;6.00;5.00;;;;;11.33;85.64;100429.94;5076788;27;45480;-66
2024/02/29 10:34:41;;;;;;;;;7.50;6.50;;;;;11.40;85.80;100422.69;5082502;27;45276;-63
2024/02/29 10:37:06;;;;;;;;;7.00;7.00;;;;;11.44;85.60;100420.81;5065616;28;49993;-62
2024/02/29 10:39:32;;;;;;;;;6.75;5.00;;;;;11.46;85.54;100413.78;5066091;28;47651;-62
2024/02/29 10:41:59;;;;;;;;;9.75;5.50;;;;;11.49;85.70;100409.28;5061329;28;45424;-63
2024/02/29 10:44:28;;;;;;;;;9.75;7.00;;;;;11.55;85.50;100413.44;5066045;27;45527;-61
2024/02/29 10:46:55;;;;;;;;;6.75;5.75;;;;;11.55;85.39;100408.19;5068122;27;46950;-62
2024/02/29 10:49:29;;;;;;;;;6.50;5.00;;;;;11.61;85.01;100407.97;5067339;28;45264;-65
2024/02/29 10:52:03;;;;;;;;;8.00;7.50;;;;;11.63;84.94;100408.75;5056417;28;45482;-63
2024/02/29 10:54:42;;;;;;;;;7.00;6.75;;;;;11.68;85.49;100398.97;5071158;27;45312;-62
2024/02/29 10:57:14;;;;;;;;;6.00;5.75;;;;;11.71;85.36;100392.75;5084825;27;45727;-65
2024/02/29 10:59:41;;;;;;;;;7.25;6.25;;;;;11.73;84.68;100385.69;5070783;27;45758;-68
2024/02/29 11:02:07;;;;;;;;;9.25;5.00;;;;;11.76;85.37;100390.81;5073882;27;47117;-65
2024/02/29 11:04:32;;;;;;;;;7.50;6.00;;;;;11.81;84.98;100381.03;5067364;28;45437;-66
2024/02/29 11:06:59;;;;;;;;;5.25;5.00;;;;;11.87;85.21;100385.19;5078275;28;45610;-67
2024/02/29 11:09:25;;;;;;;;;6.50;5.75;;;;;11.92;84.88;100378.03;5081262;27;45971;-64
2024/02/29 11:12:09;;;;;;;;;9.00;7.00;;;;;11.95;84.85;100373.53;5062294;28;45362;-64
2024/02/29 11:14:38;;;;;;;;;7.75;6.00;;;;;12.00;84.90;100378.56;5074770;28;45481;-64
2024/02/29 11:17:06;;;;;;;;;7.75;6.75;;;;;12.03;84.98;100373.22;5066691;27;45354;-64